Stewarts Point, CA (95480)

12:23 AM PST on December 29, 2014 (GMT -0800)
Unit 18, The Sea Ranch, CA | Change Station
CLOSE
Current Station
Personal Weather Station
Location: The Sea Ranch, CA
Elevation: 80 ft
Nearby Weather Stations

Elev 80 ft 38.71 °N, 123.45 °W | Updated 8 minutes ago

Partly Cloudy
Partly Cloudy
45.1 °F
Feels Like 45 °F
N
3.0
Wind Variable Wind from NW
Gusts 4.0 mph

Today
High -- | Low -- °F
--% Chance of Precip.
Yesterday
High -- | Low -- °F
Precip. -- in
7:30 AM 5:00 PM
First Quarter, 56% visible
Pressure 30.22 in
Visibility 0.5 miles
Clouds
Windchill 45 °F
Dew Point 43 °F
Humidity 93%
Rainfall 0.00 in
Snow Depth Not available.
UV 0.0 out of 12
Pollen 5.30 out of 12
Air Quality Not available.
Flu Activity Not available.
METAR KSTS 290753Z AUTO 00000KT 1/2SM FG VV001 03/03 A3023 RMK AO2 SLP231 T00330028 401440017

More Conditions Fewer Conditions

Pressure 30.22 in
Visibility 0.5 miles
Clouds
Windchill 45 °F
Dew Point 43 °F
Humidity 93%
Rainfall 0.00 in
Snow Depth Not available.
UV 0.0 out of 12
Pollen 5.30 out of 12
Air Quality Not available.
Flu Activity Not available.
METAR KSTS 290753Z AUTO 00000KT 1/2SM FG VV001 03/03 A3023 RMK AO2 SLP231 T00330028 401440017

More Conditions Fewer Conditions

10-Day Weather Forecast

Almanac

Astronomy

Dec. 29, 2014 Rise Set
Actual Time
Civil Twilight
Nautical Twilight
Astronomical Twilight
Moon
Length of Visible Light
Length of Day
Tomorrow will be .
, % of the Moon is Illuminated

Today's Extremes

State Highs State Lows

Community

WunderPhotos

Upload Photos

1,781,558 photos uploaded!

WunderBlogs® & News

Nearby

Air Quality

  Air Quality AQ Index Pollutant
Not available.

Snow Depth

Station Depth Elevation

Earthquake Activity

City Distance Mag. Time & Date
Minimum magnitude displayed is 2.5.

Coastal Water Temperatures

Place Temperature

Nearby Weather Stations